Time;durP1;ratioP1;P1;durP2;ratioP2;P2;SDS_P1;SDS_P2;PMS_P1;PMS_P2;Temp;Humidity;BMP_temperature;BMP_pressure;BME280_temperature;BME280_humidity;BME280_pressure;Samples;Min_cycle;Max_cycle;Signal;HPM_P1;HPM_P2
2021/08/29 00:01:03;;;;;;;18.10;13.52;;;;;;;13.97;100.00;100613.25;5031979;28;20087;-66
2021/08/29 00:03:47;;;;;;;22.25;13.45;;;;;;;13.94;100.00;100610.84;5031980;28;20179;-66
2021/08/29 00:06:31;;;;;;;31.00;15.07;;;;;;;13.94;100.00;100616.22;5032573;28;20057;-65
2021/08/29 00:09:15;;;;;;;20.33;14.30;;;;;;;13.91;100.00;100613.84;5032885;28;20128;-66
2021/08/29 00:11:59;;;;;;;17.90;13.15;;;;;;;13.89;100.00;100610.50;5032883;28;20049;-66
2021/08/29 00:14:42;;;;;;;25.48;15.15;;;;;;;13.91;100.00;100611.19;5031687;28;20526;-66
2021/08/29 00:17:26;;;;;;;23.98;15.15;;;;;;;13.91;100.00;100605.81;5031844;28;20060;-66
2021/08/29 00:20:11;;;;;;;24.85;15.50;;;;;;;13.93;100.00;100603.81;5032384;28;20075;-66
2021/08/29 00:22:55;;;;;;;23.02;15.40;;;;;;;13.95;100.00;100604.50;5035176;28;20527;-66
2021/08/29 00:25:39;;;;;;;25.50;15.43;;;;;;;13.97;100.00;100605.19;5036501;28;20087;-66
2021/08/29 00:28:23;;;;;;;27.30;16.17;;;;;;;13.98;100.00;100607.69;5035368;28;20107;-66
2021/08/29 00:31:07;;;;;;;26.80;16.58;;;;;;;13.98;100.00;100606.88;5036607;28;20044;-64
2021/08/29 00:33:51;;;;;;;29.20;16.80;;;;;;;14.03;100.00;100599.19;5035313;28;20124;-65
2021/08/29 00:36:34;;;;;;;22.35;15.18;;;;;;;14.00;100.00;100594.16;5035982;28;20589;-65
2021/08/29 00:39:18;;;;;;;25.90;15.27;;;;;;;14.01;100.00;100596.69;5035139;28;20180;-66
2021/08/29 00:42:07;;;;;;;24.83;14.90;;;;;;;14.03;100.00;100594.69;5021202;28;20060;-65
2021/08/29 00:44:51;;;;;;;25.42;15.20;;;;;;;14.04;100.00;100593.69;5035728;28;20092;-65
2021/08/29 00:47:37;;;;;;;26.38;14.77;;;;;;;14.02;100.00;100593.00;5035862;28;20103;-63
2021/08/29 00:50:21;;;;;;;27.10;16.88;;;;;;;14.13;100.00;100583.84;5034658;28;20427;-65
2021/08/29 00:53:07;;;;;;;26.42;15.90;;;;;;;14.17;100.00;100587.94;5036165;28;20048;-65
2021/08/29 00:55:59;;;;;;;24.63;15.55;;;;;;;14.17;100.00;100586.06;5034663;28;20052;-62
2021/08/29 00:58:44;;;;;;;27.65;17.08;;;;;;;14.21;100.00;100581.22;5035708;28;20068;-66
2021/08/29 01:01:42;;;;;;;27.80;17.30;;;;;;;14.26;100.00;100573.56;5034501;28;20051;-65
2021/08/29 01:04:32;;;;;;;25.90;16.58;;;;;;;14.28;100.00;100571.56;5034934;28;20055;-65
2021/08/29 01:07:24;;;;;;;26.85;16.45;;;;;;;14.25;100.00;100571.84;5034682;28;20043;-65
2021/08/29 01:10:19;;;;;;;23.85;15.55;;;;;;;14.23;100.00;100564.00;5034560;28;20095;-65
2021/08/29 01:13:03;;;;;;;26.15;15.75;;;;;;;14.26;100.00;100562.84;5034610;28;20127;-65
2021/08/29 01:15:48;;;;;;;26.55;16.90;;;;;;;14.25;100.00;100558.44;5034040;28;20451;-65
2021/08/29 01:18:34;;;;;;;26.30;16.25;;;;;;;14.22;100.00;100558.78;5034392;28;20052;-65
2021/08/29 01:21:27;;;;;;;27.58;16.60;;;;;;;14.21;100.00;100557.97;5034416;28;20044;-65
2021/08/29 01:24:18;;;;;;;25.97;15.97;;;;;;;14.23;100.00;100553.28;5034396;28;20048;-65
2021/08/29 01:27:13;;;;;;;26.52;17.25;;;;;;;14.24;100.00;100549.59;5034171;28;20274;-64
2021/08/29 01:29:57;;;;;;;;;;;;;;;14.19;100.00;100556.44;5020738;28;20048;-64
2021/08/29 01:32:42;;;;;;;23.63;15.43;;;;;;;14.22;100.00;100551.59;5033920;28;19919;-65
2021/08/29 01:35:26;;;;;;;26.95;16.13;;;;;;;14.23;100.00;100544.38;5034726;28;20538;-65
2021/08/29 01:38:11;;;;;;;28.33;17.60;;;;;;;14.25;100.00;100545.03;5034328;28;20071;-63
2021/08/29 01:40:55;;;;;;;28.10;17.20;;;;;;;14.24;100.00;100543.38;5033745;28;20424;-65
2021/08/29 01:43:41;;;;;;;31.40;16.58;;;;;;;14.25;100.00;100545.03;5034923;28;20048;-65
2021/08/29 01:46:25;;;;;;;26.88;16.95;;;;;;;14.20;100.00;100542.00;5033860;28;20098;-63
2021/08/29 01:49:11;;;;;;;25.17;16.90;;;;;;;14.21;100.00;100539.19;5019911;28;20083;-65
2021/08/29 01:51:55;;;;;;;29.83;16.73;;;;;;;14.23;100.00;100539.00;5033774;28;20048;-65
2021/08/29 01:54:39;;;;;;;27.27;17.85;;;;;;;14.23;100.00;100544.38;5019466;28;20531;-65
2021/08/29 01:57:23;;;;;;;28.48;17.17;;;;;;;14.25;100.00;100540.53;5033469;28;20052;-65
2021/08/29 02:00:07;;;;;;;29.92;17.20;;;;;;;14.27;100.00;100540.38;5034683;28;20135;-66
2021/08/29 02:02:51;;;;;;;29.15;17.55;;;;;;;14.26;100.00;100539.53;5033339;28;20133;-64
2021/08/29 02:05:35;;;;;;;33.90;17.83;;;;;;;14.23;100.00;100541.69;5033280;28;20099;-65
2021/08/29 02:08:19;;;;;;;27.65;17.10;;;;;;;14.25;100.00;100540.53;5019739;28;20408;-65
2021/08/29 02:11:05;;;;;;;25.42;16.70;;;;;;;14.25;100.00;100545.91;5019459;28;20080;-65
2021/08/29 02:13:53;;;;;;;28.60;17.05;;;;;;;14.20;100.00;100534.78;5033083;28;20053;-65
2021/08/29 02:16:40;;;;;;;27.50;16.45;;;;;;;14.18;100.00;100530.63;5032769;28;20416;-65
2021/08/29 02:19:27;;;;;;;25.80;16.55;;;;;;;14.12;100.00;100539.25;5032972;28;20416;-64
2021/08/29 02:22:11;;;;;;;25.45;15.52;;;;;;;14.08;100.00;100535.22;5033320;28;20052;-65
2021/08/29 02:24:55;;;;;;;23.48;15.35;;;;;;;14.08;100.00;100543.28;5032841;28;20060;-65
2021/08/29 02:27:40;;;;;;;24.27;15.95;;;;;;;14.05;100.00;100528.34;5032918;28;20099;-64
2021/08/29 02:30:25;;;;;;;27.90;15.10;;;;;;;14.02;100.00;100527.81;5032865;28;20138;-65
2021/08/29 02:33:10;;;;;;;24.20;15.02;;;;;;;14.00;100.00;100529.81;5033048;28;20196;-65
2021/08/29 02:35:54;;;;;;;22.88;14.52;;;;;;;13.95;100.00;100527.63;5032827;28;20124;-65
2021/08/29 02:38:38;;;;;;;24.13;14.75;;;;;;;13.94;100.00;100525.09;5032903;28;20506;-64
2021/08/29 02:41:23;;;;;;;20.00;13.38;;;;;;;13.90;100.00;100523.72;5019226;28;20072;-65
2021/08/29 02:44:07;;;;;;;21.45;13.85;;;;;;;13.89;100.00;100520.19;5032677;28;20052;-64
2021/08/29 02:46:51;;;;;;;17.77;12.43;;;;;;;13.90;100.00;100521.06;5018568;28;20079;-65
2021/08/29 02:49:35;;;;;;;19.48;12.13;;;;;;;13.86;100.00;100517.84;5032550;28;20147;-64
2021/08/29 02:52:20;;;;;;;18.85;12.73;;;;;;;13.92;100.00;100511.00;5018869;28;20184;-64
2021/08/29 02:55:04;;;;;;;17.42;11.98;;;;;;;13.89;100.00;100522.06;5019043;28;20474;-65
2021/08/29 02:57:56;;;;;;;16.90;11.00;;;;;;;13.88;100.00;100521.19;5033331;28;20060;-65
2021/08/29 03:00:40;;;;;;;18.35;11.85;;;;;;;13.86;100.00;100522.38;5032540;28;20049;-65
2021/08/29 03:03:24;;;;;;;18.25;11.57;;;;;;;13.88;100.00;100515.84;5033274;28;20051;-65
2021/08/29 03:06:08;;;;;;;15.00;10.70;;;;;;;13.86;100.00;100511.66;5032568;28;20051;-65
2021/08/29 03:08:53;;;;;;;19.08;11.70;;;;;;;13.86;100.00;100517.84;5032243;28;20166;-65
2021/08/29 03:11:37;;;;;;;16.60;10.88;;;;;;;13.90;100.00;100511.19;5032427;28;20094;-65
2021/08/29 03:14:21;;;;;;;15.27;10.82;;;;;;;13.86;100.00;100506.31;5032410;28;20418;-65
2021/08/29 03:17:07;;;;;;;14.07;10.18;;;;;;;13.86;100.00;100504.44;5031978;28;20048;-65
2021/08/29 03:19:51;;;;;;;17.98;10.55;;;;;;;13.87;100.00;100507.97;5032081;28;20082;-65
2021/08/29 03:22:37;;;;;;;14.57;10.02;;;;;;;13.89;100.00;100500.63;5033325;28;20095;-65
2021/08/29 03:25:21;;;;;;;14.93;9.40;;;;;;;13.92;100.00;100501.13;5018286;28;20139;-65
2021/08/29 03:28:06;;;;;;;16.25;10.95;;;;;;;13.99;100.00;100498.66;5032338;28;20064;-65
2021/08/29 03:30:51;;;;;;;14.38;9.82;;;;;;;14.07;100.00;100501.38;5032323;28;20052;-65
2021/08/29 03:33:36;;;;;;;15.15;10.18;;;;;;;14.14;100.00;100494.34;5032230;28;20103;-65
2021/08/29 03:36:22;;;;;;;14.63;9.45;;;;;;;14.16;100.00;100495.88;5031976;28;20068;-65
2021/08/29 03:39:06;;;;;;;14.25;8.95;;;;;;;14.14;100.00;100500.56;5032078;28;20053;-65
2021/08/29 03:41:50;;;;;;;12.55;8.68;;;;;;;14.16;100.00;100497.75;5032188;28;20142;-65
2021/08/29 03:44:34;;;;;;;10.80;8.20;;;;;;;14.14;100.00;100489.84;5031883;28;20052;-64
2021/08/29 03:47:18;;;;;;;11.43;8.68;;;;;;;14.17;100.00;100491.41;5032859;28;20471;-65
2021/08/29 03:50:04;;;;;;;11.73;8.43;;;;;;;14.18;100.00;100495.75;5031807;28;20491;-65
2021/08/29 03:52:49;;;;;;;10.65;7.95;;;;;;;14.17;100.00;100489.53;5031781;28;20043;-65
2021/08/29 03:55:33;;;;;;;11.70;7.45;;;;;;;14.18;100.00;100490.41;5019131;28;20091;-64
2021/08/29 03:58:17;;;;;;;11.63;7.07;;;;;;;14.18;100.00;100487.72;5035676;28;20051;-64
2021/08/29 04:01:02;;;;;;;11.27;7.13;;;;;;;14.14;100.00;100489.00;5035565;28;20432;-65
2021/08/29 04:03:46;;;;;;;11.27;7.32;;;;;;;14.15;100.00;100488.00;5036537;28;20191;-65
2021/08/29 04:06:33;;;;;;;11.18;7.47;;;;;;;14.11;100.00;100489.31;5035501;28;20056;-64
2021/08/29 04:09:19;;;;;;;11.77;7.32;;;;;;;14.11;100.00;100484.81;5035545;28;20103;-65
2021/08/29 04:12:04;;;;;;;11.25;7.40;;;;;;;14.10;100.00;100488.47;5035953;28;20129;-65
2021/08/29 04:14:48;;;;;;;11.05;6.22;;;;;;;14.10;100.00;100488.47;5021703;28;20125;-65
2021/08/29 04:17:32;;;;;;;13.10;7.15;;;;;;;14.09;100.00;100494.00;5035329;28;20049;-65
2021/08/29 04:20:17;;;;;;;11.43;6.80;;;;;;;14.10;100.00;100490.31;5035464;28;20052;-65
2021/08/29 04:23:01;;;;;;;9.15;6.32;;;;;;;14.10;100.00;100491.16;5035496;28;20407;-65
2021/08/29 04:25:45;;;;;;;8.50;6.50;;;;;;;14.12;100.00;100485.63;5035249;28;20128;-65
2021/08/29 04:28:29;;;;;;;6.82;5.95;;;;;;;14.17;100.00;100484.19;5035434;28;20575;-65
2021/08/29 04:31:23;;;;;;;11.55;6.43;;;;;;;14.16;100.00;100487.00;5021165;28;20040;-65
2021/08/29 04:34:09;;;;;;;8.30;6.40;;;;;;;14.16;100.00;100487.00;5035326;28;20100;-65
2021/08/29 04:36:52;;;;;;;8.98;6.43;;;;;;;14.14;100.00;100480.94;5021454;28;20052;-65
2021/08/29 04:39:37;;;;;;;9.98;6.43;;;;;;;14.11;100.00;100492.00;5035184;28;20057;-65
2021/08/29 04:42:20;;;;;;;8.85;6.28;;;;;;;14.09;100.00;100492.16;5034830;28;20056;-65
2021/08/29 04:45:05;;;;;;;10.05;6.68;;;;;;;14.10;100.00;100487.66;5036000;28;20052;-65
2021/08/29 04:47:49;;;;;;;10.20;6.47;;;;;;;14.07;100.00;100498.69;5035276;28;20060;-65
2021/08/29 04:50:33;;;;;;;8.68;6.22;;;;;;;14.12;100.00;100496.34;5034728;28;20044;-65
2021/08/29 04:53:17;;;;;;;7.32;6.40;;;;;;;14.09;100.00;100488.66;5034963;28;20072;-65
2021/08/29 04:56:01;;;;;;;7.25;6.25;;;;;;;14.10;100.00;100493.00;5034949;28;20048;-65
2021/08/29 04:58:44;;;;;;;7.80;6.63;;;;;;;14.11;100.00;100494.69;5035486;28;20542;-65
2021/08/29 05:01:31;;;;;;;9.02;5.90;;;;;;;14.15;100.00;100486.16;5035811;28;20048;-65
2021/08/29 05:04:15;;;;;;;8.27;6.30;;;;;;;14.13;100.00;100493.53;5035424;28;20072;-65
2021/08/29 05:06:58;;;;;;;8.70;6.18;;;;;;;14.14;100.00;100499.72;5035539;28;20482;-65
2021/08/29 05:09:42;;;;;;;9.25;6.50;;;;;;;14.16;100.00;100497.75;5034659;28;20036;-65
2021/08/29 05:12:26;;;;;;;8.27;5.85;;;;;;;14.23;100.00;100498.78;5034302;28;20052;-65
2021/08/29 05:15:10;;;;;;;10.10;6.47;;;;;;;14.23;100.00;100498.78;5033988;28;20415;-66
2021/08/29 05:17:54;;;;;;;11.43;6.53;;;;;;;14.23;100.00;100499.63;5069383;22;20060;-71
2021/08/29 05:20:38;;;;;;;8.73;6.07;;;;;;;14.25;100.00;100494.09;5040172;28;20060;-70
2021/08/29 05:23:22;;;;;;;11.00;5.88;;;;;;;14.28;100.00;100501.84;5054304;28;20075;-71
2021/08/29 05:26:06;;;;;;;8.40;5.75;;;;;;;14.30;100.00;100502.50;5054194;28;20108;-72
2021/08/29 05:28:50;;;;;;;8.70;6.07;;;;;;;14.33;100.00;100502.19;5039784;28;20052;-69
2021/08/29 05:31:34;;;;;;;6.63;5.20;;;;;;;14.36;100.00;100499.16;5054092;28;20060;-69
2021/08/29 05:34:18;;;;;;;7.13;6.05;;;;;;;14.42;100.00;100498.53;5039893;28;20110;-72
2021/08/29 05:37:02;;;;;;;5.82;5.22;;;;;;;14.43;100.00;100502.88;5054811;28;20110;-71
2021/08/29 05:39:46;;;;;;;6.38;5.25;;;;;;;14.49;100.00;100495.00;5053800;28;20099;-71
2021/08/29 05:42:30;;;;;;;6.35;5.65;;;;;;;14.55;100.00;100505.09;5053948;28;20461;-72
2021/08/29 05:45:14;;;;;;;7.75;5.07;;;;;;;14.63;100.00;100501.59;5039693;28;20071;-72
2021/08/29 05:47:58;;;;;;;6.97;5.43;;;;;;;14.66;100.00;100507.47;5053478;28;20048;-71
2021/08/29 05:50:42;;;;;;;8.02;5.47;;;;;;;14.72;100.00;100500.59;5053794;28;20044;-71
2021/08/29 05:53:26;;;;;;;6.07;4.93;;;;;;;14.72;100.00;100508.66;5054480;28;20056;-70
2021/08/29 05:56:10;;;;;;;6.28;5.03;;;;;;;14.76;100.00;100507.31;5053583;28;20048;-71
2021/08/29 05:58:54;;;;;;;7.55;5.20;;;;;;;14.82;100.00;100512.88;5053543;28;20133;-71
2021/08/29 06:01:38;;;;;;;9.45;6.70;;;;;;;14.86;100.00;100508.84;5053570;28;20518;-71
2021/08/29 06:04:22;;;;;;;7.15;5.40;;;;;;;14.92;100.00;100516.22;5054474;28;20431;-71
2021/08/29 06:07:06;;;;;;;7.43;6.03;;;;;;;14.99;100.00;100513.75;5053402;28;20051;-71
2021/08/29 06:09:50;;;;;;;8.93;5.40;;;;;;;15.00;100.00;100510.06;5053157;28;20051;-71
2021/08/29 06:12:34;;;;;;;7.32;5.63;;;;;;;15.01;100.00;100509.03;5039289;28;20139;-71
2021/08/29 06:15:18;;;;;;;6.65;4.18;;;;;;;14.97;100.00;100508.53;5054298;28;20545;-71
2021/08/29 06:18:01;;;;;;;4.95;3.40;;;;;;;14.98;100.00;100507.53;5052337;28;20103;-71
2021/08/29 06:20:45;;;;;;;4.80;3.60;;;;;;;15.01;100.00;100499.13;5053849;28;20048;-71
2021/08/29 06:23:29;;;;;;;5.43;3.80;;;;;;;14.99;100.00;100503.00;5038992;28;20048;-71
2021/08/29 06:26:14;;;;;;;4.10;3.65;;;;;;;15.03;100.00;100504.34;5052795;28;20060;-71
2021/08/29 06:28:58;;;;;;;3.75;3.42;;;;;;;15.10;100.00;100497.31;5053008;28;20212;-71
2021/08/29 06:31:42;;;;;;;4.15;3.75;;;;;;;15.19;100.00;100496.31;5052738;28;20518;-70
2021/08/29 06:34:26;;;;;;;5.05;4.00;;;;;;;15.26;100.00;100497.28;5052841;28;20053;-71
2021/08/29 06:37:10;;;;;;;5.15;3.67;;;;;;;15.34;100.00;100497.31;5052682;28;20090;-71
2021/08/29 06:39:54;;;;;;;4.05;3.65;;;;;;;15.51;100.00;100499.00;5038853;28;20127;-72
2021/08/29 06:42:37;;;;;;;4.03;3.42;;;;;;;15.58;100.00;100495.44;5053805;28;20051;-71
2021/08/29 06:45:22;;;;;;;4.32;3.92;;;;;;;15.66;100.00;100490.06;5054052;28;20059;-71
2021/08/29 06:48:06;;;;;;;5.40;4.30;;;;;;;15.78;100.00;100486.81;5038602;28;20078;-71
2021/08/29 06:50:50;;;;;;;5.55;4.13;;;;;;;15.84;100.00;100491.53;5052672;28;20102;-71
2021/08/29 06:53:34;;;;;;;7.63;3.72;;;;;;;15.86;100.00;100488.66;5052616;28;20552;-71
2021/08/29 06:56:17;;;;;;;4.82;4.03;;;;;;;15.85;100.00;100492.38;5053458;28;20132;-72
2021/08/29 06:59:01;;;;;;;5.35;3.78;;;;;;;15.83;100.00;100492.53;5038086;28;20052;-71
2021/08/29 07:01:45;;;;;;;4.20;3.70;;;;;;;15.72;100.00;100508.19;5053173;28;20526;-71
2021/08/29 07:04:29;;;;;;;4.18;3.72;;;;;;;15.71;100.00;100504.66;5038109;28;20510;-71
2021/08/29 07:07:13;;;;;;;5.30;4.18;;;;;;;15.73;100.00;100508.03;5052474;28;20055;-71
2021/08/29 07:09:57;;;;;;;4.60;3.45;;;;;;;15.78;100.00;100500.25;5037993;28;20090;-70
2021/08/29 07:12:41;;;;;;;4.75;3.70;;;;;;;15.77;100.00;100503.97;5052075;28;20047;-71
2021/08/29 07:15:25;;;;;;;4.68;3.15;;;;;;;15.62;100.00;100506.69;5052088;28;20549;-71
2021/08/29 07:18:08;;;;;;;3.20;2.90;;;;;;;15.62;100.00;100501.31;5052060;28;20530;-71
2021/08/29 07:20:52;;;;;;;4.07;3.30;;;;;;;15.70;100.00;100508.38;5053245;28;20047;-71
2021/08/29 07:23:36;;;;;;;5.07;3.80;;;;;;;15.74;100.00;100504.31;5051968;28;20072;-71
2021/08/29 07:26:20;;;;;;;4.30;3.50;;;;;;;15.73;100.00;100502.63;5038045;28;20063;-71
2021/08/29 07:29:04;;;;;;;4.53;3.97;;;;;;;15.86;100.00;100499.44;5038329;28;20080;-71
2021/08/29 07:31:48;;;;;;;3.90;3.50;;;;;;;15.89;100.00;100502.63;5041588;28;20139;-71
2021/08/29 07:34:34;;;;;;;4.78;3.78;;;;;;;16.04;100.00;100497.31;5057567;28;20048;-71
2021/08/29 07:37:17;;;;;;;7.63;3.63;;;;;;;16.05;100.00;100499.84;5042253;28;20056;-71
2021/08/29 07:40:02;;;;;;;3.50;3.20;;;;;;;16.17;100.00;100494.94;5042009;28;20052;-71
2021/08/29 07:42:47;;;;;;;3.70;3.17;;;;;;;16.19;100.00;100501.00;5041766;28;20568;-71
2021/08/29 07:45:31;;;;;;;3.17;2.88;;;;;;;16.21;100.00;100497.13;5055938;28;20048;-71
2021/08/29 07:48:15;;;;;;;4.22;2.90;;;;;;;16.22;100.00;100500.63;5055962;28;20051;-71
2021/08/29 07:50:59;;;;;;;4.57;2.97;;;;;;;16.30;100.00;100496.06;5041860;28;20044;-71
2021/08/29 07:53:42;;;;;;;3.40;3.10;;;;;;;16.38;100.00;100501.44;5055960;28;20478;-71
2021/08/29 07:56:26;;;;;;;3.70;3.05;;;;;;;16.44;100.00;100503.44;5055773;28;20047;-69
2021/08/29 07:59:10;;;;;;;3.08;2.78;;;;;;;16.44;100.00;100506.13;5056790;28;20048;-71
2021/08/29 08:01:54;;;;;;;5.32;3.05;;;;;;;16.44;100.00;100506.13;5041719;28;20047;-70
2021/08/29 08:04:38;;;;;;;4.70;3.10;;;;;;;16.36;100.00;100502.63;5055973;28;20056;-71
2021/08/29 08:07:22;;;;;;;5.68;3.33;;;;;;;16.37;100.00;100505.13;5056412;28;20586;-71
2021/08/29 08:10:07;;;;;;;5.07;3.58;;;;;;;16.50;100.00;100509.97;5056355;28;20051;-70
2021/08/29 08:12:51;;;;;;;3.65;3.22;;;;;;;16.62;100.00;100503.16;5055286;28;20505;-71
2021/08/29 08:15:35;;;;;;;4.70;2.95;;;;;;;16.69;100.00;100510.34;5055596;28;20051;-71
2021/08/29 08:18:19;;;;;;;;;;;;;;;16.66;100.00;100516.09;5055521;28;20099;-71
2021/08/29 08:21:03;;;;;;;3.53;3.10;;;;;;;16.70;100.00;100520.09;5041253;28;19922;-70
2021/08/29 08:23:47;;;;;;;3.65;3.25;;;;;;;16.66;100.00;100512.53;5056378;28;20051;-70
2021/08/29 08:26:31;;;;;;;3.80;3.22;;;;;;;16.67;100.00;100519.63;5056262;28;20133;-71
2021/08/29 08:29:15;;;;;;;5.05;3.38;;;;;;;16.73;100.00;100522.44;5056341;28;20147;-70
2021/08/29 08:31:59;;;;;;;3.65;3.17;;;;;;;16.74;100.00;100523.28;5041140;28;20052;-70
2021/08/29 08:34:43;;;;;;;3.13;2.83;;;;;;;16.80;100.00;100518.00;5055310;28;20068;-71
2021/08/29 08:37:27;;;;;;;4.53;3.00;;;;;;;16.85;100.00;100525.56;5040901;28;20111;-71
2021/08/29 08:40:11;;;;;;;4.22;3.42;;;;;;;16.87;100.00;100523.56;5055797;28;20044;-71
2021/08/29 08:42:55;;;;;;;5.10;2.88;;;;;;;16.94;100.00;100525.34;5054917;28;20151;-71
2021/08/29 08:45:39;;;;;;;4.95;2.88;;;;;;;17.00;100.00;100521.91;5041157;28;20450;-70
2021/08/29 08:48:23;;;;;;;3.45;2.67;;;;;;;17.01;100.00;100520.06;5055038;28;20105;-70
2021/08/29 08:51:08;;;;;;;3.13;2.50;;;;;;;17.12;100.00;100520.50;5040459;28;20048;-70
2021/08/29 08:53:54;;;;;;;2.83;2.10;;;;;;;17.18;100.00;100522.47;5055588;28;20095;-69
2021/08/29 08:56:38;;;;;;;2.45;2.25;;;;;;;17.34;100.00;100527.72;5040636;28;20606;-71
2021/08/29 08:59:22;;;;;;;2.22;2.08;;;;;;;17.49;100.00;100520.53;5040333;28;20044;-70
2021/08/29 09:02:07;;;;;;;3.40;2.38;;;;;;;17.51;100.00;100518.50;5054715;28;20423;-71
2021/08/29 09:04:52;;;;;;;2.60;2.40;;;;;;;17.51;100.00;100520.38;5054362;28;20506;-71
2021/08/29 09:07:36;;;;;;;2.72;2.30;;;;;;;17.61;100.00;100518.25;5054311;28;20513;-68
2021/08/29 09:10:20;;;;;;;2.03;1.92;;;;;;;17.62;100.00;100507.28;5040171;28;20114;-71
2021/08/29 09:13:05;;;;;;;2.42;2.22;;;;;;;17.73;100.00;100514.91;5040132;28;20051;-71
2021/08/29 09:15:49;;;;;;;2.28;2.08;;;;;;;17.83;100.00;100512.78;5040154;28;20055;-70
2021/08/29 09:18:58;;;;;;;2.47;2.28;;;;;;;17.97;100.00;100520.06;5040279;28;20048;-71
2021/08/29 09:21:42;;;;;;;2.58;2.30;;;;;;;18.10;100.00;100520.25;5055314;28;20051;-70
2021/08/29 09:24:29;;;;;;;2.70;2.50;;;;;;;18.28;100.00;100520.72;5053992;28;20139;-71
2021/08/29 09:27:13;;;;;;;3.17;2.80;;;;;;;18.42;100.00;100515.34;5040014;28;20143;-71
2021/08/29 09:30:02;;;;;;;3.83;2.45;;;;;;;18.37;100.00;100522.31;5054182;28;20047;-70
2021/08/29 09:32:56;;;;;;;4.85;2.28;;;;;;;18.45;100.00;100525.75;5039744;28;20047;-70
2021/08/29 09:35:40;;;;;;;3.03;2.45;;;;;;;18.27;100.00;100521.75;5054089;28;20043;-70
2021/08/29 09:38:24;;;;;;;2.95;2.25;;;;;;;18.21;100.00;100519.78;5054739;28;20051;-70
2021/08/29 09:41:21;;;;;;;3.05;2.75;;;;;;;18.19;100.00;100523.69;5053927;28;20040;-70
2021/08/29 09:44:08;;;;;;;2.58;2.38;;;;;;;18.12;100.00;100520.91;5053616;28;20094;-70
2021/08/29 09:46:58;;;;;;;2.72;2.53;;;;;;;18.06;100.00;100523.50;5054639;28;20055;-71
2021/08/29 09:49:49;;;;;;;3.13;2.60;;;;;;;18.05;100.00;100522.69;5053498;28;20056;-71
2021/08/29 09:52:33;;;;;;;2.67;2.40;;;;;;;17.92;100.00;100525.16;5053441;28;20119;-70
2021/08/29 09:55:28;;;;;;;3.90;2.38;;;;;;;17.95;100.00;100521.28;5053460;28;20048;-70
2021/08/29 09:58:33;;;;;;;2.90;2.65;;;;;;;17.92;100.00;100522.47;5053294;28;20127;-70
2021/08/29 10:01:18;;;;;;;3.30;2.90;;;;;;;17.89;100.00;100522.03;5054249;28;20514;-70
2021/08/29 10:04:16;;;;;;;3.13;2.72;;;;;;;17.83;100.00;100522.75;5053760;28;20553;-69
2021/08/29 10:07:11;;;;;;;3.80;3.10;;;;;;;17.77;100.00;100524.31;5053295;28;20090;-68
2021/08/29 10:09:55;;;;;;;3.22;2.92;;;;;;;17.71;100.00;100535.84;5054111;28;20048;-71
2021/08/29 10:12:39;;;;;;;;;;;;;;;17.53;100.00;100535.34;5053421;28;20469;-71
2021/08/29 10:15:25;;;;;;;3.45;3.15;;;;;;;17.50;100.00;100533.00;5053392;28;19998;-71
2021/08/29 10:18:10;;;;;;;4.85;3.45;;;;;;;17.54;100.00;100528.94;5052828;28;20103;-70
2021/08/29 10:20:54;;;;;;;3.90;3.50;;;;;;;17.68;100.00;100535.34;5053147;28;20075;-71
2021/08/29 10:23:40;;;;;;;4.40;3.92;;;;;;;17.78;100.00;100531.41;5039128;28;20072;-71
2021/08/29 10:26:25;;;;;;;9.25;6.97;;;;;;;17.92;100.00;100530.56;5038865;28;20071;-70
2021/08/29 10:29:14;;;;;;;4.47;4.00;;;;;;;17.97;100.00;100536.25;5053755;28;20558;-71
2021/08/29 10:32:06;;;;;;;4.50;4.07;;;;;;;17.96;100.00;100529.19;5053226;28;20047;-70
2021/08/29 10:34:51;;;;;;;6.13;5.35;;;;;;;17.85;100.00;100537.72;5052691;28;20048;-70
2021/08/29 10:37:40;;;;;;;5.30;4.80;;;;;;;17.84;100.00;100530.66;5052847;28;20067;-70
2021/08/29 10:40:24;;;;;;;4.97;4.47;;;;;;;17.87;100.00;100532.13;5038755;28;20545;-70
2021/08/29 10:43:08;;;;;;;4.65;4.15;;;;;;;17.90;100.00;100538.00;5052778;28;20043;-70
2021/08/29 10:45:52;;;;;;;5.00;4.38;;;;;;;17.82;100.00;100527.28;5038442;28;20128;-70
2021/08/29 10:48:39;;;;;;;4.95;4.45;;;;;;;17.70;100.00;100536.03;5053704;28;20136;-71
2021/08/29 10:51:27;;;;;;;4.63;3.78;;;;;;;17.50;100.00;100535.69;5052652;28;20102;-71
2021/08/29 10:54:12;;;;;;;4.45;4.03;;;;;;;17.35;100.00;100534.81;5038540;28;20048;-70
2021/08/29 10:56:57;;;;;;;5.45;4.72;;;;;;;17.36;100.00;100539.19;5052104;28;20128;-70
2021/08/29 11:00:01;;;;;;;7.25;4.55;;;;;;;17.27;100.00;100537.56;5038123;28;20044;-70
2021/08/29 11:02:47;;;;;;;5.18;4.68;;;;;;;17.20;100.00;100536.59;5052519;28;20052;-69
2021/08/29 11:05:31;;;;;;;5.78;4.72;;;;;;;17.08;100.00;100534.50;5052336;28;20052;-71
2021/08/29 11:08:30;;;;;;;5.30;4.80;;;;;;;17.07;100.00;100536.34;5053085;28;20087;-71
2021/08/29 11:11:47;;;;;;;6.00;4.93;;;;;;;17.12;100.00;100525.91;5038630;28;20091;-71
2021/08/29 11:14:47;;;;;;;7.70;5.32;;;;;;;17.16;100.00;100523.66;5052617;28;20051;-70
2021/08/29 11:17:33;;;;;;;7.38;5.80;;;;;;;17.28;100.00;100520.34;5054670;28;20052;-71
2021/08/29 11:20:17;;;;;;;10.10;5.60;;;;;;;17.30;100.00;100526.41;5052915;28;20052;-71
2021/08/29 11:23:02;;;;;;;6.78;5.60;;;;;;;17.39;100.00;100514.56;5051998;28;20090;-70
2021/08/29 11:25:46;;;;;;;7.75;6.25;;;;;;;17.48;100.00;100526.97;5052932;28;20478;-71
2021/08/29 11:28:31;;;;;;;8.73;6.25;;;;;;;17.57;100.00;100519.63;5038136;28;20094;-71
2021/08/29 11:31:50;;;;;;;7.43;6.18;;;;;;;17.63;100.00;100527.00;5053194;28;20549;-71
2021/08/29 11:34:35;;;;;;;8.23;6.30;;;;;;;17.70;100.00;100526.06;5052355;28;20047;-71
2021/08/29 11:37:23;;;;;;;7.53;5.97;;;;;;;17.71;100.00;100519.66;5051915;28;20093;-71
2021/08/29 11:40:09;;;;;;;6.85;6.03;;;;;;;17.78;100.00;100520.59;5052649;28;20052;-71
2021/08/29 11:43:13;;;;;;;8.27;6.32;;;;;;;17.80;100.00;100513.16;5051812;28;20415;-71
2021/08/29 11:45:57;;;;;;;;;;;;;;;17.81;100.00;100520.22;5053101;28;20114;-71
2021/08/29 11:49:01;;;;;;;7.50;6.47;;;;;;;17.83;100.00;100528.97;5053030;28;19966;-70
2021/08/29 11:51:49;;;;;;;11.88;6.85;;;;;;;17.82;100.00;100521.91;5051977;28;20140;-70
2021/08/29 11:54:33;;;;;;;7.78;6.60;;;;;;;17.76;100.00;100522.66;5052011;28;20167;-71
2021/08/29 11:57:17;;;;;;;10.13;6.75;;;;;;;17.73;100.00;100519.47;5051713;28;20060;-71
2021/08/29 12:00:06;;;;;;;7.10;6.25;;;;;;;17.64;100.00;100524.13;5051781;28;20057;-69
2021/08/29 12:02:54;;;;;;;11.20;7.45;;;;;;;17.67;100.00;100528.28;5051847;28;20097;-68
2021/08/29 12:05:50;;;;;;;8.07;6.50;;;;;;;17.71;100.00;100524.22;5023609;28;20088;-70
2021/08/29 12:08:39;;;;;;;10.50;7.97;;;;;;;17.77;100.00;100518.94;5051780;28;20106;-71
2021/08/29 12:11:25;;;;;;;8.85;7.03;;;;;;;17.79;100.00;100511.50;5051568;28;20044;-71
2021/08/29 12:14:21;;;;;;;9.98;7.25;;;;;;;17.82;100.00;100516.50;5051772;28;20414;-70
2021/08/29 12:17:10;;;;;;;11.23;6.82;;;;;;;17.78;100.00;100520.59;5053472;28;20128;-71
2021/08/29 12:19:54;;;;;;;8.63;6.60;;;;;;;17.62;100.00;100519.94;5055698;28;20102;-71
2021/08/29 12:22:39;;;;;;;8.95;6.70;;;;;;;17.74;100.00;100526.53;5055462;28;20099;-69
2021/08/29 12:25:23;;;;;;;9.02;6.20;;;;;;;17.75;100.00;100514.75;5056425;28;20064;-71
2021/08/29 12:28:12;;;;;;;7.20;6.28;;;;;;;17.76;100.00;100511.88;5040905;28;20102;-71
2021/08/29 12:30:57;;;;;;;6.93;6.13;;;;;;;17.78;100.00;100515.22;5056298;28;20131;-71
2021/08/29 12:33:46;;;;;;;7.65;6.28;;;;;;;17.79;100.00;100518.75;5041176;28;20454;-70
2021/08/29 12:36:31;;;;;;;9.85;6.63;;;;;;;17.83;100.00;100522.75;5054860;28;20101;-70